createdAt,value
2023-04-13T00:00:47.913Z,0.82
2023-04-13T00:03:17.832Z,0.80
2023-04-13T00:08:12.923Z,0.70
2023-04-13T00:10:41.500Z,0.80
2023-04-13T00:13:09.741Z,0.50
2023-04-13T00:15:40.959Z,0.65
2023-04-13T00:18:08.800Z,0.80
2023-04-13T00:20:35.742Z,0.52
2023-04-13T00:23:02.860Z,0.80
2023-04-13T00:25:29.461Z,0.88
2023-04-13T00:27:56.212Z,0.63
2023-04-13T00:30:22.850Z,0.85
2023-04-13T00:32:49.602Z,0.63
2023-04-13T00:35:18.961Z,0.82
2023-04-13T00:37:47.152Z,1.08
2023-04-13T00:42:48.030Z,0.70
2023-04-13T00:45:15.810Z,0.80
2023-04-13T00:47:46.646Z,0.60
2023-04-13T00:50:13.771Z,0.70
2023-04-13T00:52:41.014Z,0.77
2023-04-13T00:55:08.199Z,0.70
2023-04-13T00:57:35.248Z,0.70
2023-04-13T01:00:07.799Z,0.70
2023-04-13T01:02:35.137Z,1.00
2023-04-13T01:05:03.632Z,1.15
2023-04-13T01:07:41.503Z,0.60
2023-04-13T01:10:26.794Z,0.80
2023-04-13T01:13:10.311Z,0.68
2023-04-13T01:15:50.032Z,0.50
2023-04-13T01:18:18.702Z,0.70
2023-04-13T01:20:46.754Z,0.82
2023-04-13T01:23:33.768Z,0.68
2023-04-13T01:26:07.005Z,1.05
2023-04-13T01:28:35.332Z,0.60
2023-04-13T01:31:11.408Z,0.80
2023-04-13T01:33:42.260Z,0.47
2023-04-13T01:36:13.179Z,0.55
2023-04-13T01:41:09.698Z,0.63
2023-04-13T01:43:40.541Z,0.70
2023-04-13T01:46:15.802Z,0.60
2023-04-13T01:48:54.551Z,0.85
2023-04-13T01:51:52.199Z,0.77
2023-04-13T01:54:25.772Z,0.63
2023-04-13T01:56:57.264Z,0.50
2023-04-13T01:59:26.918Z,1.23
2023-04-13T02:01:54.702Z,0.97
2023-04-13T02:04:22.752Z,1.27
2023-04-13T02:06:51.713Z,1.10
2023-04-13T02:09:25.241Z,0.75
2023-04-13T02:11:55.513Z,1.15
2023-04-13T02:14:22.812Z,1.23
2023-04-13T02:16:51.333Z,1.20
2023-04-13T02:19:20.199Z,1.00
2023-04-13T02:21:48.075Z,1.40
2023-04-13T02:24:15.147Z,1.70
2023-04-13T02:26:42.324Z,1.67
2023-04-13T02:29:10.120Z,1.00
2023-04-13T02:31:38.017Z,0.90
2023-04-13T02:34:05.920Z,0.80
2023-04-13T02:36:33.485Z,1.00
2023-04-13T02:39:06.992Z,1.00
2023-04-13T02:41:34.766Z,0.85
2023-04-13T02:44:03.255Z,1.05
2023-04-13T02:46:41.079Z,1.13
2023-04-13T02:49:16.280Z,0.95
2023-04-13T02:52:09.367Z,1.35
2023-04-13T02:54:43.740Z,0.80
2023-04-13T02:57:13.679Z,0.93
2023-04-13T02:59:42.713Z,1.00
2023-04-13T03:02:10.590Z,1.05
2023-04-13T03:04:38.146Z,1.25
2023-04-13T03:07:10.157Z,0.47
2023-04-13T03:09:43.132Z,1.02
2023-04-13T03:12:10.614Z,1.05
2023-04-13T03:14:40.117Z,1.27
2023-04-13T03:17:11.578Z,1.80
2023-04-13T03:19:40.825Z,0.85
2023-04-13T03:22:08.317Z,1.00
2023-04-13T03:24:41.734Z,0.98
2023-04-13T03:27:09.777Z,1.20
2023-04-13T03:29:44.822Z,1.20
2023-04-13T03:32:18.588Z,0.88
2023-04-13T03:34:49.089Z,0.75
2023-04-13T03:37:16.523Z,1.13
2023-04-13T03:39:44.595Z,0.90
2023-04-13T03:42:16.051Z,0.95
2023-04-13T03:44:51.031Z,1.27
2023-04-13T03:47:18.094Z,1.23
2023-04-13T03:49:45.281Z,1.00
2023-04-13T03:52:12.674Z,1.15
2023-04-13T03:54:47.791Z,0.85
2023-04-13T03:57:15.801Z,1.15
2023-04-13T03:59:44.030Z,1.80
2023-04-13T04:02:14.817Z,1.73
2023-04-13T04:04:43.155Z,1.38
2023-04-13T04:07:11.103Z,1.10
2023-04-13T04:09:39.219Z,1.38
2023-04-13T04:12:07.707Z,1.25
2023-04-13T04:14:41.972Z,1.20
2023-04-13T04:17:19.300Z,1.58
2023-04-13T04:19:46.768Z,1.73
2023-04-13T04:22:15.753Z,1.15
2023-04-13T04:24:43.064Z,1.20
2023-04-13T04:27:11.408Z,1.30
2023-04-13T04:29:38.759Z,1.63
2023-04-13T04:32:24.288Z,1.15
2023-04-13T04:34:53.153Z,1.30
2023-04-13T04:37:22.235Z,1.23
2023-04-13T04:40:09.490Z,1.33
2023-04-13T04:42:37.972Z,1.10
2023-04-13T04:45:10.680Z,1.25
2023-04-13T04:47:43.858Z,1.50
2023-04-13T04:50:17.923Z,1.55
2023-04-13T04:52:48.177Z,1.63
2023-04-13T04:55:20.097Z,1.45
2023-04-13T04:57:50.439Z,1.75
2023-04-13T05:00:20.037Z,1.75
2023-04-13T05:03:10.469Z,2.13
2023-04-13T05:05:41.285Z,1.70
2023-04-13T05:08:12.654Z,1.65
2023-04-13T05:10:46.356Z,1.25
2023-04-13T05:13:15.200Z,1.20
2023-04-13T05:15:50.678Z,1.63
2023-04-13T05:18:19.436Z,1.65
2023-04-13T05:20:47.285Z,2.03
2023-04-13T05:23:14.498Z,1.50
2023-04-13T05:25:49.380Z,1.58
2023-04-13T05:28:21.840Z,2.33
2023-04-13T05:30:49.269Z,1.90
2023-04-13T05:33:17.173Z,2.10
2023-04-13T05:35:46.386Z,1.52
2023-04-13T05:38:13.571Z,1.73
2023-04-13T05:40:41.566Z,2.17
2023-04-13T05:43:10.053Z,1.33
2023-04-13T05:45:44.345Z,1.70
2023-04-13T05:50:43.868Z,1.90
2023-04-13T05:53:11.927Z,1.65
2023-04-13T05:55:52.756Z,1.50
2023-04-13T05:58:20.471Z,1.48
2023-04-13T06:00:50.972Z,2.38
2023-04-13T06:03:27.534Z,1.33
2023-04-13T06:05:54.898Z,1.55
2023-04-13T06:08:22.596Z,1.90
2023-04-13T06:10:51.829Z,1.60
2023-04-13T06:13:19.388Z,1.50
2023-04-13T06:15:46.520Z,1.98
2023-04-13T06:18:13.687Z,1.50
2023-04-13T06:20:41.716Z,1.67
2023-04-13T06:23:09.566Z,1.90
2023-04-13T06:25:38.630Z,1.55
2023-04-13T06:28:06.810Z,1.85
2023-04-13T06:30:38.207Z,1.95
2023-04-13T06:33:10.367Z,2.20
2023-04-13T06:35:38.679Z,1.60
2023-04-13T06:38:05.933Z,1.77
2023-04-13T06:40:44.888Z,1.70
2023-04-13T06:43:26.230Z,2.53
2023-04-13T06:46:15.434Z,2.00
2023-04-13T06:48:46.812Z,2.25
2023-04-13T06:51:15.698Z,1.95
2023-04-13T06:53:43.904Z,1.77
2023-04-13T06:56:10.951Z,1.80
2023-04-13T06:58:38.118Z,1.60
2023-04-13T07:01:05.367Z,1.40
2023-04-13T07:03:35.377Z,1.63
2023-04-13T07:06:05.416Z,1.65
2023-04-13T07:08:34.455Z,1.98
2023-04-13T07:11:02.696Z,1.80
2023-04-13T07:13:36.700Z,1.80
2023-04-13T07:16:05.908Z,1.90
2023-04-13T07:18:36.651Z,1.70
2023-04-13T07:21:05.074Z,1.90
2023-04-13T07:23:42.753Z,1.88
2023-04-13T07:26:16.347Z,1.90
2023-04-13T07:28:44.010Z,1.77
2023-04-13T07:31:13.565Z,2.47
2023-04-13T07:33:44.702Z,2.03
2023-04-13T07:36:12.275Z,2.17
2023-04-13T07:38:41.421Z,2.90
2023-04-13T07:41:09.704Z,1.88
2023-04-13T07:43:37.915Z,2.30
2023-04-13T07:46:12.010Z,2.72
2023-04-13T07:48:43.851Z,1.38
2023-04-13T07:53:52.484Z,1.50
2023-04-13T07:56:20.187Z,1.20
2023-04-13T07:58:48.105Z,1.80
2023-04-13T08:01:15.126Z,1.67
2023-04-13T08:03:42.830Z,1.15
2023-04-13T08:06:20.994Z,1.60
2023-04-13T08:08:48.353Z,1.60
2023-04-13T08:11:16.156Z,1.85
2023-04-13T08:13:46.006Z,1.55
2023-04-13T08:16:14.116Z,1.30
2023-04-13T08:18:42.513Z,1.92
2023-04-13T08:21:12.260Z,1.75
2023-04-13T08:23:42.492Z,1.40
2023-04-13T08:26:20.820Z,1.30
2023-04-13T08:28:49.032Z,1.30
2023-04-13T08:31:16.438Z,1.77
2023-04-13T08:33:50.148Z,1.75
2023-04-13T08:36:17.694Z,1.90
2023-04-13T08:38:51.046Z,1.60
2023-04-13T08:41:20.337Z,1.50
2023-04-13T08:43:51.030Z,1.77
2023-04-13T08:46:21.446Z,2.38
2023-04-13T08:48:54.791Z,1.95
2023-04-13T08:51:32.673Z,2.78
2023-04-13T08:54:01.017Z,2.70
2023-04-13T08:56:45.362Z,2.20
2023-04-13T08:59:17.267Z,1.70
2023-04-13T09:01:47.886Z,2.35
2023-04-13T09:04:20.805Z,1.87
2023-04-13T09:06:51.728Z,2.80
2023-04-13T09:09:21.448Z,2.15
2023-04-13T09:11:51.026Z,2.50
2023-04-13T09:14:22.478Z,2.22
2023-04-13T09:16:51.285Z,1.42
2023-04-13T09:19:32.699Z,1.80
2023-04-13T09:22:13.002Z,1.83
2023-04-13T09:24:41.703Z,2.45
2023-04-13T09:27:22.118Z,1.90
2023-04-13T09:29:51.617Z,1.73
2023-04-13T09:32:23.640Z,1.93
2023-04-13T09:35:04.917Z,2.60
2023-04-13T09:37:32.852Z,2.08
2023-04-13T09:40:14.713Z,2.65
2023-04-13T09:42:53.692Z,3.53
2023-04-13T09:45:21.471Z,2.70
2023-04-13T09:47:49.134Z,3.20
2023-04-13T09:50:18.655Z,3.50
2023-04-13T09:52:45.557Z,3.30
2023-04-13T09:55:17.655Z,2.40
2023-04-13T09:57:44.581Z,2.55
2023-04-13T10:00:19.376Z,2.80
2023-04-13T10:02:53.212Z,2.42
2023-04-13T10:05:20.267Z,2.63
2023-04-13T10:07:47.722Z,2.28
2023-04-13T10:10:14.925Z,1.75
2023-04-13T10:12:47.116Z,2.22
2023-04-13T10:15:25.984Z,2.13
2023-04-13T10:18:16.823Z,2.60
2023-04-13T10:20:44.572Z,2.55
2023-04-13T10:23:11.829Z,2.53
2023-04-13T10:25:49.947Z,2.80
2023-04-13T10:28:17.619Z,2.97
2023-04-13T10:30:54.525Z,2.58
2023-04-13T10:33:21.683Z,3.08
2023-04-13T10:35:58.810Z,2.60
2023-04-13T10:38:26.208Z,3.85
2023-04-13T10:40:53.767Z,3.00
2023-04-13T10:43:31.455Z,2.67
2023-04-13T10:46:09.898Z,2.65
2023-04-13T10:48:38.018Z,2.40
2023-04-13T10:51:05.005Z,2.92
2023-04-13T10:53:33.372Z,3.30
2023-04-13T10:56:01.758Z,2.65
2023-04-13T10:58:32.959Z,3.40
2023-04-13T11:01:00.705Z,2.35
2023-04-13T11:03:29.142Z,2.42
2023-04-13T11:05:58.271Z,2.40
2023-04-13T11:08:28.178Z,1.80
2023-04-13T11:10:57.355Z,1.35
2023-04-13T11:13:29.840Z,1.70
2023-04-13T11:16:05.376Z,1.50
2023-04-13T11:18:32.737Z,1.67
2023-04-13T11:21:00.014Z,1.70
2023-04-13T11:23:28.247Z,2.50
2023-04-13T11:25:59.396Z,2.33
2023-04-13T11:28:42.784Z,2.22
2023-04-13T11:31:12.955Z,1.60
2023-04-13T11:33:40.911Z,2.17
2023-04-13T11:36:09.855Z,1.90
2023-04-13T11:38:39.625Z,2.33
2023-04-13T11:43:37.048Z,1.85
2023-04-13T11:46:04.221Z,1.60
2023-04-13T11:48:31.746Z,2.65
2023-04-13T11:51:00.007Z,2.10
2023-04-13T11:53:27.806Z,2.17
2023-04-13T11:55:54.999Z,2.38
2023-04-13T11:58:22.842Z,2.30
2023-04-13T12:00:50.299Z,2.28
2023-04-13T12:03:34.335Z,2.00
2023-04-13T12:06:06.523Z,2.10
2023-04-13T12:08:34.360Z,1.90
2023-04-13T12:11:38.725Z,2.25
2023-04-13T12:14:07.210Z,2.03
2023-04-13T12:19:12.718Z,1.77
2023-04-13T12:21:52.881Z,1.98
2023-04-13T12:24:20.128Z,1.90
2023-04-13T12:29:17.498Z,1.50
2023-04-13T12:31:45.711Z,1.70
2023-04-13T12:34:13.453Z,1.92
2023-04-13T12:36:41.194Z,1.70
2023-04-13T12:39:08.199Z,2.42
2023-04-13T12:41:35.551Z,1.52
2023-04-13T12:44:02.605Z,1.90
2023-04-13T12:46:29.849Z,1.20
2023-04-13T12:48:57.049Z,1.33
2023-04-13T12:51:24.128Z,1.65
2023-04-13T12:53:51.065Z,1.60
2023-04-13T12:56:18.489Z,1.77
2023-04-13T12:58:45.751Z,1.77
2023-04-13T13:01:14.429Z,1.50
2023-04-13T13:03:41.739Z,1.33
2023-04-13T13:06:09.118Z,1.70
2023-04-13T13:08:39.493Z,2.00
2023-04-13T13:11:08.538Z,1.52
2023-04-13T13:13:35.813Z,1.80
2023-04-13T13:16:03.682Z,1.50
2023-04-13T13:18:42.694Z,1.55
2023-04-13T13:21:17.539Z,2.03
2023-04-13T13:23:46.050Z,2.00
2023-04-13T13:31:12.886Z,2.00
2023-04-13T13:33:39.946Z,1.88
2023-04-13T13:36:07.962Z,1.63
2023-04-13T13:38:36.834Z,1.63
2023-04-13T13:41:04.485Z,2.40
2023-04-13T13:43:32.969Z,2.55
2023-04-13T13:46:00.020Z,1.83
2023-04-13T13:48:27.863Z,2.45
2023-04-13T13:51:06.920Z,1.90
2023-04-13T13:53:36.953Z,1.92
2023-04-13T13:56:04.686Z,1.85
2023-04-13T13:58:32.721Z,1.27
2023-04-13T14:01:00.241Z,1.85
2023-04-13T14:03:27.724Z,1.55
2023-04-13T14:05:55.107Z,2.00
2023-04-13T14:08:22.616Z,1.70
2023-04-13T14:10:50.296Z,1.48
2023-04-13T14:13:17.680Z,1.73
2023-04-13T14:15:44.806Z,1.50
2023-04-13T14:18:12.215Z,1.60
2023-04-13T14:20:40.528Z,1.80
2023-04-13T14:23:09.568Z,2.00
2023-04-13T14:25:38.254Z,1.60
2023-04-13T14:28:05.471Z,1.10
2023-04-13T14:30:33.784Z,1.60
2023-04-13T14:33:01.932Z,1.58
2023-04-13T14:35:29.701Z,1.70
2023-04-13T14:37:57.526Z,1.85
2023-04-13T14:40:25.070Z,1.88
2023-04-13T14:42:55.337Z,1.38
2023-04-13T14:45:22.347Z,1.17
2023-04-13T14:47:49.912Z,1.85
2023-04-13T14:50:17.338Z,1.50
2023-04-13T14:52:45.956Z,1.65
2023-04-13T14:55:14.322Z,1.65
2023-04-13T14:57:41.692Z,2.00
2023-04-13T15:00:22.400Z,1.45
2023-04-13T15:02:51.101Z,1.40
2023-04-13T15:05:18.923Z,0.88
2023-04-13T15:07:47.149Z,1.40
2023-04-13T15:10:14.349Z,1.50
2023-04-13T15:12:41.967Z,1.50
2023-04-13T15:15:09.849Z,1.55
2023-04-13T15:17:37.195Z,1.27
2023-04-13T15:20:07.513Z,1.20
2023-04-13T15:22:36.077Z,1.92
2023-04-13T15:25:03.288Z,1.55
2023-04-13T15:27:31.765Z,1.83
2023-04-13T15:30:03.416Z,1.88
2023-04-13T15:32:30.733Z,1.65
2023-04-13T15:34:57.858Z,1.40
2023-04-13T15:37:24.926Z,1.60
2023-04-13T15:39:52.119Z,1.65
2023-04-13T15:42:21.329Z,2.38
2023-04-13T15:44:49.050Z,1.70
2023-04-13T15:47:16.109Z,2.20
2023-04-13T15:49:43.103Z,1.98
2023-04-13T15:52:10.498Z,1.73
2023-04-13T15:54:38.166Z,1.50
2023-04-13T15:57:05.530Z,1.92
2023-04-13T15:59:34.838Z,1.30
2023-04-13T16:02:02.502Z,1.48
2023-04-13T16:04:29.898Z,1.50
2023-04-13T16:07:11.973Z,1.83
2023-04-13T16:09:41.625Z,1.40
2023-04-13T16:12:11.212Z,1.50
2023-04-13T16:14:39.490Z,1.42
2023-04-13T16:17:07.750Z,1.50
2023-04-13T16:19:36.345Z,1.65
2023-04-13T16:22:07.052Z,1.70
2023-04-13T16:24:33.891Z,1.70
2023-04-13T16:27:01.064Z,1.67
2023-04-13T16:29:28.979Z,1.70
2023-04-13T16:31:56.669Z,1.60
2023-04-13T16:34:26.505Z,1.70
2023-04-13T16:36:54.242Z,1.10
2023-04-13T16:39:22.094Z,1.73
2023-04-13T16:41:49.353Z,1.50
2023-04-13T16:44:16.448Z,2.15
2023-04-13T16:46:43.731Z,1.88
2023-04-13T16:49:10.967Z,1.50
2023-04-13T16:51:38.316Z,1.73
2023-04-13T16:54:11.658Z,2.10
2023-04-13T16:56:39.350Z,2.22
2023-04-13T16:59:06.753Z,2.17
2023-04-13T17:01:36.579Z,3.17
2023-04-13T17:04:05.522Z,3.08
2023-04-13T17:06:36.099Z,2.10
2023-04-13T17:09:03.917Z,4.03
2023-04-13T17:11:31.587Z,3.17
2023-04-13T17:13:58.441Z,3.28
2023-04-13T17:16:29.294Z,3.70
2023-04-13T17:18:56.866Z,4.97
2023-04-13T17:21:24.166Z,3.50
2023-04-13T17:23:51.329Z,3.58
2023-04-13T17:26:18.919Z,2.95
2023-04-13T17:28:46.594Z,2.53
2023-04-13T17:31:14.442Z,1.88
2023-04-13T17:33:41.572Z,1.85
2023-04-13T17:36:08.660Z,2.00
2023-04-13T17:38:36.015Z,2.47
2023-04-13T17:41:03.774Z,2.10
2023-04-13T17:43:31.026Z,2.30
2023-04-13T17:45:58.289Z,2.92
2023-04-13T17:48:25.597Z,2.20
2023-04-13T17:50:52.557Z,2.35
2023-04-13T17:53:19.779Z,1.65
2023-04-13T17:55:46.862Z,2.17
2023-04-13T17:58:14.014Z,1.83
2023-04-13T18:00:41.223Z,2.03
2023-04-13T18:03:09.546Z,1.88
2023-04-13T18:05:36.924Z,1.88
2023-04-13T18:08:04.040Z,2.13
2023-04-13T18:10:31.291Z,1.83
2023-04-13T18:13:01.466Z,2.08
2023-04-13T18:15:28.561Z,2.47
2023-04-13T18:17:55.741Z,2.15
2023-04-13T18:20:23.589Z,3.88
2023-04-13T18:22:50.701Z,2.45
2023-04-13T18:25:18.490Z,3.50
2023-04-13T18:27:45.832Z,4.50
2023-04-13T18:30:13.444Z,2.10
2023-04-13T18:32:40.574Z,1.83
2023-04-13T18:35:08.227Z,2.00
2023-04-13T18:37:35.326Z,2.08
2023-04-13T18:40:04.452Z,2.78
2023-04-13T18:42:33.971Z,2.58
2023-04-13T18:45:01.345Z,2.83
2023-04-13T18:47:28.763Z,3.80
2023-04-13T18:49:57.764Z,2.40
2023-04-13T18:52:26.036Z,2.47
2023-04-13T18:54:53.386Z,2.85
2023-04-13T18:57:20.877Z,2.55
2023-04-13T18:59:47.900Z,5.20
2023-04-13T19:02:15.602Z,3.80
2023-04-13T19:04:43.187Z,3.28
2023-04-13T19:07:10.672Z,4.30
2023-04-13T19:09:40.982Z,6.22
2023-04-13T19:14:35.331Z,4.78
2023-04-13T19:17:02.774Z,4.50
2023-04-13T19:19:29.673Z,5.13
2023-04-13T19:21:56.915Z,4.22
2023-04-13T19:24:24.769Z,3.33
2023-04-13T19:26:52.226Z,4.10
2023-04-13T19:29:20.963Z,3.22
2023-04-13T19:31:48.319Z,3.33
2023-04-13T19:34:16.065Z,3.28
2023-04-13T19:36:43.787Z,3.00
2023-04-13T19:39:11.288Z,3.25
2023-04-13T19:41:41.423Z,3.15
2023-04-13T19:44:13.490Z,3.33
2023-04-13T19:46:40.844Z,3.20
2023-04-13T19:49:08.495Z,3.00
2023-04-13T19:51:35.694Z,2.45
2023-04-13T19:54:05.250Z,2.00
2023-04-13T19:56:34.560Z,2.13
2023-04-13T19:59:04.263Z,1.90
2023-04-13T20:01:33.186Z,2.58
2023-04-13T20:04:02.268Z,2.30
2023-04-13T20:06:30.810Z,2.00
2023-04-13T20:09:07.761Z,1.90
2023-04-13T20:11:35.603Z,1.80
2023-04-13T20:14:04.218Z,1.80
2023-04-13T20:16:32.221Z,1.70
2023-04-13T20:19:00.337Z,1.70
2023-04-13T20:21:33.047Z,2.40
2023-04-13T20:24:00.747Z,3.65
2023-04-13T20:26:29.867Z,4.43
2023-04-13T20:28:57.744Z,5.20
2023-04-13T20:31:25.302Z,4.60
2023-04-13T20:33:52.884Z,3.45
2023-04-13T20:36:21.863Z,3.63
2023-04-13T20:38:50.489Z,3.33
2023-04-13T20:41:18.511Z,2.85
2023-04-13T20:43:45.823Z,2.92
2023-04-13T20:46:12.787Z,2.05
2023-04-13T20:51:13.125Z,2.33
2023-04-13T20:53:40.314Z,2.40
2023-04-13T20:56:07.791Z,2.30
2023-04-13T20:58:34.924Z,2.17
2023-04-13T21:01:02.194Z,2.10
2023-04-13T21:03:32.668Z,2.05
2023-04-13T21:06:00.331Z,2.00
2023-04-13T21:08:27.644Z,1.63
2023-04-13T21:10:54.629Z,1.80
2023-04-13T21:13:22.689Z,1.90
2023-04-13T21:15:50.078Z,2.22
2023-04-13T21:18:17.036Z,2.00
2023-04-13T21:20:44.283Z,2.20
2023-04-13T21:23:11.325Z,2.10
2023-04-13T21:25:38.516Z,2.08
2023-04-13T21:28:05.993Z,2.15
2023-04-13T21:30:33.013Z,1.90
2023-04-13T21:32:59.947Z,1.75
2023-04-13T21:35:27.073Z,2.10
2023-04-13T21:37:54.851Z,1.90
2023-04-13T21:40:24.165Z,1.70
2023-04-13T21:42:51.091Z,1.90
2023-04-13T21:45:18.075Z,1.73
2023-04-13T21:47:47.157Z,1.90
2023-04-13T21:50:14.377Z,2.70
2023-04-13T21:52:41.514Z,2.67
2023-04-13T21:55:11.252Z,1.98
2023-04-13T21:57:38.452Z,1.80
2023-04-13T22:00:06.757Z,1.63
2023-04-13T22:02:39.050Z,1.50
2023-04-13T22:05:06.623Z,1.70
2023-04-13T22:07:42.227Z,1.60
2023-04-13T22:10:10.737Z,1.80
2023-04-13T22:12:38.107Z,2.03
2023-04-13T22:15:05.586Z,2.03
2023-04-13T22:17:32.782Z,1.67
2023-04-13T22:20:00.261Z,1.88
2023-04-13T22:22:27.308Z,2.05
2023-04-13T22:24:54.484Z,2.53
2023-04-13T22:27:21.867Z,1.98
2023-04-13T22:29:49.379Z,2.10
2023-04-13T22:32:16.817Z,1.52
2023-04-13T22:34:43.858Z,2.03
2023-04-13T22:37:14.181Z,1.92
2023-04-13T22:39:42.432Z,1.60
2023-04-13T22:42:09.335Z,2.10
2023-04-13T22:44:36.370Z,2.30
2023-04-13T22:47:04.648Z,1.80
2023-04-13T22:49:33.974Z,1.95
2023-04-13T22:52:01.093Z,1.75
2023-04-13T22:54:28.354Z,2.08
2023-04-13T22:56:55.422Z,2.17
2023-04-13T22:59:22.577Z,1.63
2023-04-13T23:01:50.138Z,2.28
2023-04-13T23:04:17.592Z,2.85
2023-04-13T23:06:45.015Z,2.05
2023-04-13T23:09:12.387Z,2.22
2023-04-13T23:11:40.416Z,1.67
2023-04-13T23:14:07.620Z,2.00
2023-04-13T23:16:34.829Z,1.70
2023-04-13T23:19:02.113Z,1.95
2023-04-13T23:21:31.260Z,1.77
2023-04-13T23:23:58.109Z,1.92
2023-04-13T23:26:24.937Z,2.22
2023-04-13T23:28:52.173Z,1.98
2023-04-13T23:31:19.341Z,1.70
2023-04-13T23:33:46.248Z,1.73
2023-04-13T23:36:13.565Z,1.75
2023-04-13T23:38:40.564Z,2.13
2023-04-13T23:41:08.023Z,1.80
2023-04-13T23:43:37.084Z,2.10
2023-04-13T23:46:04.379Z,1.70
2023-04-13T23:48:31.310Z,1.92
2023-04-13T23:50:58.834Z,1.77
2023-04-13T23:53:25.875Z,2.10
2023-04-13T23:55:52.971Z,1.90
2023-04-13T23:58:20.127Z,2.33
